createdAt,value
2018-01-22T00:02:31.416Z,2.30
2018-01-22T00:05:36.350Z,2.33
2018-01-22T00:08:42.149Z,2.30
2018-01-22T00:11:47.817Z,1.63
2018-01-22T00:14:53.366Z,2.33
2018-01-22T00:17:59.230Z,2.00
2018-01-22T00:21:05.748Z,2.23
2018-01-22T00:24:11.115Z,2.20
2018-01-22T00:27:16.578Z,2.63
2018-01-22T00:30:21.486Z,3.10
2018-01-22T00:33:26.669Z,2.50
2018-01-22T00:36:32.142Z,3.53
2018-01-22T00:39:38.225Z,3.20
2018-01-22T00:42:43.574Z,2.80
2018-01-22T00:45:49.030Z,3.23
2018-01-22T00:48:54.005Z,3.33
2018-01-22T00:51:59.385Z,2.73
2018-01-22T00:55:05.173Z,3.00
2018-01-22T00:58:10.266Z,2.93
2018-01-22T01:01:15.753Z,2.80
2018-01-22T01:04:21.006Z,2.50
2018-01-22T01:07:26.785Z,2.80
2018-01-22T01:10:32.421Z,3.30
2018-01-22T01:13:38.705Z,2.90
2018-01-22T01:16:44.245Z,3.00
2018-01-22T01:19:49.877Z,3.23
2018-01-22T01:22:55.031Z,3.23
2018-01-22T01:25:59.695Z,3.97
2018-01-22T01:29:05.533Z,4.40
2018-01-22T01:32:11.338Z,4.27
2018-01-22T01:35:16.521Z,4.00
2018-01-22T01:38:22.984Z,3.80
2018-01-22T01:41:29.010Z,4.47
2018-01-22T01:44:33.837Z,4.40
2018-01-22T01:47:39.521Z,4.47
2018-01-22T01:50:45.257Z,3.90
2018-01-22T01:53:50.769Z,4.50
2018-01-22T01:56:57.553Z,4.87
2018-01-22T02:00:03.333Z,3.90
2018-01-22T02:03:08.293Z,3.77
2018-01-22T02:06:13.696Z,5.00
2018-01-22T02:09:18.838Z,4.40
2018-01-22T02:12:24.277Z,4.57
2018-01-22T02:15:29.319Z,4.40
2018-01-22T02:18:34.773Z,4.97
2018-01-22T02:21:40.082Z,3.90
2018-01-22T02:24:45.825Z,4.27
2018-01-22T02:27:50.789Z,4.03
2018-01-22T02:30:55.882Z,4.70
2018-01-22T02:34:01.577Z,3.87
2018-01-22T02:37:06.775Z,3.80
2018-01-22T02:40:12.349Z,4.40
2018-01-22T02:43:17.765Z,4.47
2018-01-22T02:46:23.436Z,4.70
2018-01-22T02:49:29.382Z,4.33
2018-01-22T02:52:34.862Z,5.10
2018-01-22T02:55:39.867Z,4.33
2018-01-22T02:58:45.577Z,5.00
2018-01-22T03:01:51.869Z,4.70
2018-01-22T03:04:57.698Z,5.70
2018-01-22T03:08:03.401Z,5.27
2018-01-22T03:11:08.566Z,5.13
2018-01-22T03:14:14.152Z,5.00
2018-01-22T03:17:20.433Z,5.40
2018-01-22T03:20:25.733Z,5.13
2018-01-22T03:23:31.113Z,5.37
2018-01-22T03:26:37.781Z,5.60
2018-01-22T03:29:44.305Z,5.30
2018-01-22T03:32:49.205Z,4.90
2018-01-22T03:35:55.057Z,5.30
2018-01-22T03:39:00.465Z,5.17
2018-01-22T03:42:06.075Z,4.47
2018-01-22T03:45:11.342Z,5.00
2018-01-22T03:48:16.277Z,4.77
2018-01-22T03:51:22.166Z,5.30
2018-01-22T03:54:28.062Z,5.97
2018-01-22T03:57:33.827Z,6.23
2018-01-22T04:00:38.941Z,5.30
2018-01-22T04:03:45.026Z,4.67
2018-01-22T04:06:50.797Z,5.37
2018-01-22T04:09:56.163Z,5.00
2018-01-22T04:13:01.910Z,5.13
2018-01-22T04:16:07.557Z,4.80
2018-01-22T04:19:12.555Z,4.90
2018-01-22T04:22:18.282Z,4.80
2018-01-22T04:25:24.048Z,4.70
2018-01-22T04:28:29.677Z,4.40
2018-01-22T04:31:35.437Z,5.10
2018-01-22T04:34:41.967Z,5.90
2018-01-22T04:37:48.020Z,5.57
2018-01-22T04:40:53.065Z,5.67
2018-01-22T04:43:58.161Z,5.80
2018-01-22T04:47:03.984Z,5.80
2018-01-22T04:50:09.334Z,5.20
2018-01-22T04:53:14.353Z,5.80
2018-01-22T04:56:19.594Z,5.30
2018-01-22T04:59:25.434Z,5.90
2018-01-22T05:02:31.045Z,6.37
2018-01-22T05:05:36.774Z,5.93
2018-01-22T05:08:42.330Z,4.90
2018-01-22T05:11:48.098Z,4.57
2018-01-22T05:14:54.469Z,6.37
2018-01-22T05:17:59.530Z,5.67
2018-01-22T05:21:04.689Z,6.37
2018-01-22T05:24:11.074Z,6.53
2018-01-22T05:27:16.113Z,6.80
2018-01-22T05:30:21.181Z,7.10
2018-01-22T05:33:26.689Z,7.50
2018-01-22T05:36:31.666Z,6.97
2018-01-22T05:39:37.665Z,6.47
2018-01-22T05:42:42.670Z,6.70
2018-01-22T05:45:48.447Z,6.53
2018-01-22T05:48:54.826Z,7.40
2018-01-22T05:52:00.522Z,8.07
2018-01-22T05:55:05.822Z,7.73
2018-01-22T05:58:10.750Z,8.30
2018-01-22T06:01:16.893Z,7.87
2018-01-22T06:04:21.905Z,7.40
2018-01-22T06:07:27.189Z,7.37
2018-01-22T06:10:33.717Z,7.70
2018-01-22T06:13:40.129Z,9.27
2018-01-22T06:16:45.874Z,6.67
2018-01-22T06:19:51.551Z,6.33
2018-01-22T06:22:57.409Z,6.30
2018-01-22T06:26:02.478Z,6.53
2018-01-22T06:29:08.582Z,7.63
2018-01-22T06:32:15.129Z,9.23
2018-01-22T06:35:20.093Z,9.50
2018-01-22T06:38:25.057Z,7.63
2018-01-22T06:41:30.357Z,7.97
2018-01-22T06:44:35.279Z,8.33
2018-01-22T06:47:40.889Z,6.90
2018-01-22T06:50:45.765Z,6.60
2018-01-22T06:53:51.249Z,7.40
2018-01-22T06:56:56.324Z,7.87
2018-01-22T07:00:02.837Z,7.73
2018-01-22T07:03:08.186Z,7.60
2018-01-22T07:06:13.898Z,8.27
2018-01-22T07:09:19.298Z,8.63
2018-01-22T07:12:24.703Z,9.03
2018-01-22T07:15:30.330Z,10.00
2018-01-22T07:18:35.697Z,8.63
2018-01-22T07:21:41.006Z,7.80
2018-01-22T07:24:47.081Z,8.97
2018-01-22T07:27:52.777Z,8.20
2018-01-22T07:30:58.442Z,8.40
2018-01-22T07:34:03.901Z,7.57
2018-01-22T07:37:09.521Z,7.60
2018-01-22T07:40:14.805Z,7.10
2018-01-22T07:43:20.185Z,7.37
2018-01-22T07:46:25.335Z,5.77
2018-01-22T07:49:30.998Z,4.97
2018-01-22T07:52:36.686Z,5.90
2018-01-22T07:55:42.173Z,4.50
2018-01-22T07:58:47.457Z,4.80
2018-01-22T08:01:53.046Z,4.50
2018-01-22T08:04:58.922Z,5.30
2018-01-22T08:08:03.847Z,5.40
2018-01-22T08:11:08.846Z,5.50
2018-01-22T08:14:14.570Z,6.10
2018-01-22T08:17:19.370Z,5.07
2018-01-22T08:20:24.334Z,6.50
2018-01-22T08:23:30.102Z,6.40
2018-01-22T08:26:36.658Z,6.77
2018-01-22T08:29:41.909Z,6.90
2018-01-22T08:32:47.242Z,5.77
2018-01-22T08:35:52.425Z,5.73
2018-01-22T08:38:57.708Z,6.00
2018-01-22T08:42:03.169Z,6.40
2018-01-22T08:45:09.469Z,6.60
2018-01-22T08:48:14.250Z,7.30
2018-01-22T08:51:20.413Z,6.87
2018-01-22T08:54:26.263Z,8.40
2018-01-22T08:57:31.523Z,7.60
2018-01-22T09:00:36.349Z,6.60
2018-01-22T09:03:41.342Z,7.30
2018-01-22T09:06:47.493Z,7.17
2018-01-22T09:09:53.187Z,6.83
2018-01-22T09:12:58.606Z,5.63
2018-01-22T09:16:04.269Z,6.00
2018-01-22T09:19:09.542Z,5.20
2018-01-22T09:22:14.933Z,5.53
2018-01-22T09:25:20.158Z,5.90
2018-01-22T09:28:26.390Z,5.53
2018-01-22T09:31:32.234Z,5.40
2018-01-22T09:34:36.949Z,5.97
2018-01-22T09:37:42.009Z,6.10
2018-01-22T09:40:47.778Z,5.87
2018-01-22T09:43:53.474Z,5.50
2018-01-22T09:46:58.717Z,5.20
2018-01-22T09:50:03.790Z,4.80
2018-01-22T09:53:08.713Z,4.20
2018-01-22T09:56:13.602Z,4.00
2018-01-22T09:59:19.973Z,3.50
2018-01-22T10:02:24.814Z,4.00
2018-01-22T10:05:29.730Z,3.60
2018-01-22T10:08:34.934Z,3.40
2018-01-22T10:11:40.157Z,3.30
2018-01-22T10:14:45.821Z,3.53
2018-01-22T10:17:51.930Z,3.87
2018-01-22T10:20:57.365Z,3.80
2018-01-22T10:24:03.294Z,3.90
2018-01-22T10:27:08.921Z,4.20
2018-01-22T10:30:14.577Z,4.53
2018-01-22T10:33:20.341Z,5.20
2018-01-22T10:36:25.817Z,4.50
2018-01-22T10:39:31.413Z,4.63
2018-01-22T10:42:37.286Z,3.90
2018-01-22T10:45:43.134Z,4.00
2018-01-22T10:48:48.014Z,3.73
2018-01-22T10:51:53.030Z,3.40
2018-01-22T10:54:59.524Z,3.53
2018-01-22T10:58:04.587Z,5.00
2018-01-22T11:01:09.430Z,3.90
2018-01-22T11:04:15.062Z,4.17
2018-01-22T11:07:20.350Z,3.30
2018-01-22T11:10:26.278Z,3.27
2018-01-22T11:13:31.525Z,4.40
2018-01-22T11:16:37.013Z,6.17
2018-01-22T11:19:43.127Z,11.93
2018-01-22T11:22:48.365Z,5.33
2018-01-22T11:25:54.561Z,5.27
2018-01-22T11:29:00.045Z,3.37
2018-01-22T11:32:05.213Z,4.20
2018-01-22T11:35:10.958Z,4.90
2018-01-22T11:38:15.921Z,15.33
2018-01-22T11:41:21.271Z,10.03
2018-01-22T11:44:27.498Z,3.50
2018-01-22T11:47:32.766Z,3.97
2018-01-22T11:50:38.106Z,3.70
2018-01-22T11:53:43.238Z,2.80
2018-01-22T11:56:48.929Z,3.20
2018-01-22T11:59:54.870Z,3.20
2018-01-22T12:03:00.262Z,36.17
2018-01-22T12:06:05.669Z,6.07
2018-01-22T12:09:11.554Z,3.30
2018-01-22T12:12:17.233Z,3.30
2018-01-22T12:15:22.806Z,2.90
2018-01-22T12:18:28.449Z,3.47
2018-01-22T12:21:33.900Z,2.73
2018-01-22T12:24:40.241Z,4.30
2018-01-22T12:27:45.586Z,5.33
2018-01-22T12:30:50.885Z,3.93
2018-01-22T12:33:55.973Z,3.80
2018-01-22T12:37:00.865Z,5.13
2018-01-22T12:40:07.109Z,4.10
2018-01-22T12:43:12.492Z,3.53
2018-01-22T12:46:18.409Z,3.23
2018-01-22T12:49:24.662Z,2.93
2018-01-22T12:52:30.541Z,3.97
2018-01-22T12:55:36.435Z,3.57
2018-01-22T12:58:41.454Z,3.80
2018-01-22T13:01:46.877Z,3.83
2018-01-22T13:04:52.262Z,5.63
2018-01-22T13:07:57.913Z,3.60
2018-01-22T13:11:03.364Z,4.80
2018-01-22T13:14:09.438Z,4.97
2018-01-22T13:17:15.593Z,4.13
2018-01-22T13:20:21.737Z,4.23
2018-01-22T13:23:26.841Z,4.23
2018-01-22T13:26:41.210Z,5.77
2018-01-22T13:29:47.589Z,10.00
2018-01-22T13:32:54.510Z,4.53
2018-01-22T13:36:00.189Z,3.83
2018-01-22T13:39:05.241Z,3.87
2018-01-22T13:42:11.067Z,4.20
2018-01-22T13:45:17.575Z,3.97
2018-01-22T13:48:23.070Z,5.37
2018-01-22T13:51:28.714Z,13.20
2018-01-22T13:54:34.501Z,9.37
2018-01-22T13:57:40.073Z,6.00
2018-01-22T14:00:45.493Z,6.87
2018-01-22T14:03:50.597Z,6.03
2018-01-22T14:06:55.849Z,4.63
2018-01-22T14:10:01.257Z,5.73
2018-01-22T14:13:06.101Z,7.10
2018-01-22T14:16:11.482Z,7.10
2018-01-22T14:19:16.983Z,9.47
2018-01-22T14:22:22.181Z,5.60
2018-01-22T14:25:27.529Z,7.97
2018-01-22T14:28:32.798Z,5.87
2018-01-22T14:31:38.163Z,4.47
2018-01-22T14:34:44.705Z,4.70
2018-01-22T14:37:50.203Z,5.53
2018-01-22T14:40:55.477Z,5.30
2018-01-22T14:44:00.923Z,5.97
2018-01-22T14:47:05.895Z,11.60
2018-01-22T14:50:11.466Z,12.20
2018-01-22T14:53:17.196Z,10.87
2018-01-22T14:56:22.747Z,16.43
2018-01-22T14:59:28.481Z,13.63
2018-01-22T15:02:35.641Z,11.10
2018-01-22T15:05:41.416Z,7.13
2018-01-22T15:08:46.704Z,7.47
2018-01-22T15:11:52.249Z,6.20
2018-01-22T15:14:58.624Z,6.20
2018-01-22T15:18:03.950Z,5.40
2018-01-22T15:21:10.350Z,6.80
2018-01-22T15:24:16.281Z,7.57
2018-01-22T15:27:22.090Z,8.40
2018-01-22T15:30:28.254Z,8.77
2018-01-22T15:33:33.137Z,8.67
2018-01-22T15:36:38.789Z,8.37
2018-01-22T15:39:44.571Z,6.37
2018-01-22T15:42:49.689Z,5.17
2018-01-22T15:45:55.316Z,12.40
2018-01-22T15:49:00.421Z,9.17
2018-01-22T15:52:06.333Z,5.93
2018-01-22T15:55:11.723Z,8.43
2018-01-22T15:58:16.709Z,8.63
2018-01-22T16:01:21.678Z,9.43
2018-01-22T16:04:27.750Z,7.77
2018-01-22T16:07:33.106Z,11.07
2018-01-22T16:10:38.259Z,6.40
2018-01-22T16:13:44.758Z,5.90
2018-01-22T16:16:51.255Z,6.20
2018-01-22T16:19:56.931Z,6.60
2018-01-22T16:23:08.485Z,6.00
2018-01-22T16:26:13.690Z,6.63
2018-01-22T16:29:18.845Z,7.90
2018-01-22T16:32:25.157Z,7.60
2018-01-22T16:35:31.501Z,8.90
2018-01-22T16:38:37.159Z,9.20
2018-01-22T16:41:42.251Z,8.10
2018-01-22T16:44:48.699Z,7.80
2018-01-22T16:48:00.481Z,4.40
2018-01-22T16:51:05.705Z,6.47
2018-01-22T16:54:10.917Z,6.83
2018-01-22T16:57:17.361Z,5.60
2018-01-22T17:00:23.321Z,4.30
2018-01-22T17:03:29.589Z,7.10
2018-01-22T17:06:35.161Z,14.43
2018-01-22T17:09:41.098Z,19.33
2018-01-22T17:12:47.501Z,20.73
2018-01-22T17:15:52.755Z,20.57
2018-01-22T17:18:58.320Z,22.00
2018-01-22T17:22:03.678Z,21.73
2018-01-22T17:25:09.305Z,21.20
2018-01-22T17:28:15.330Z,18.50
2018-01-22T17:31:20.650Z,17.87
2018-01-22T17:34:26.888Z,20.10
2018-01-22T17:37:31.728Z,17.73
2018-01-22T17:40:36.673Z,17.60
2018-01-22T17:43:42.793Z,19.77
2018-01-22T17:46:47.962Z,18.30
2018-01-22T17:49:52.654Z,15.40
2018-01-22T17:52:58.162Z,13.93
2018-01-22T17:56:04.393Z,15.93
2018-01-22T17:59:10.784Z,13.20
2018-01-22T18:02:16.766Z,14.13
2018-01-22T18:05:21.730Z,14.50
2018-01-22T18:08:27.433Z,12.03
2018-01-22T18:11:33.223Z,11.80
2018-01-22T18:14:39.409Z,10.23
2018-01-22T18:17:44.998Z,9.23
2018-01-22T18:20:50.713Z,9.30
2018-01-22T18:23:56.556Z,9.53
2018-01-22T18:27:01.845Z,8.20
2018-01-22T18:30:07.195Z,7.90
2018-01-22T18:33:13.530Z,7.30
2018-01-22T18:36:19.402Z,6.63
2018-01-22T18:39:24.961Z,6.07
2018-01-22T18:42:30.485Z,6.20
2018-01-22T18:45:35.541Z,6.33
2018-01-22T18:48:42.026Z,6.40
2018-01-22T18:51:48.285Z,5.63
2018-01-22T18:54:54.514Z,6.10
2018-01-22T18:57:59.494Z,5.43
2018-01-22T19:01:04.877Z,5.10
2018-01-22T19:04:10.629Z,5.10
2018-01-22T19:07:16.434Z,5.60
2018-01-22T19:10:22.143Z,6.63
2018-01-22T19:13:27.465Z,5.97
2018-01-22T19:16:33.937Z,6.70
2018-01-22T19:19:39.598Z,6.97
2018-01-22T19:22:46.209Z,7.07
2018-01-22T19:25:52.022Z,6.43
2018-01-22T19:28:58.084Z,5.97
2018-01-22T19:32:03.982Z,5.60
2018-01-22T19:35:10.061Z,5.40
2018-01-22T19:38:15.934Z,5.40
2018-01-22T19:41:22.251Z,5.23
2018-01-22T19:44:28.118Z,4.90
2018-01-22T19:47:32.958Z,4.77
2018-01-22T19:50:44.119Z,4.40
2018-01-22T19:53:49.425Z,3.90
2018-01-22T19:56:54.756Z,4.13
2018-01-22T20:00:00.534Z,4.60
2018-01-22T20:03:05.334Z,4.67
2018-01-22T20:06:10.481Z,4.40
2018-01-22T20:09:15.950Z,4.47
2018-01-22T20:12:21.586Z,4.07
2018-01-22T20:15:27.096Z,4.17
2018-01-22T20:18:32.046Z,4.50
2018-01-22T20:21:37.362Z,4.47
2018-01-22T20:24:43.010Z,3.60
2018-01-22T20:27:48.223Z,4.30
2018-01-22T20:30:53.494Z,5.97
2018-01-22T20:33:58.693Z,4.20
2018-01-22T20:37:03.974Z,3.40
2018-01-22T20:40:09.724Z,3.63
2018-01-22T20:43:15.152Z,3.57
2018-01-22T20:46:21.098Z,3.30
2018-01-22T20:49:26.861Z,3.47
2018-01-22T20:52:32.978Z,3.37
2018-01-22T20:55:37.930Z,4.07
2018-01-22T20:58:43.481Z,3.63
2018-01-22T21:01:49.495Z,3.87
2018-01-22T21:04:55.185Z,3.87
2018-01-22T21:08:00.161Z,3.70
2018-01-22T21:11:06.132Z,4.07
2018-01-22T21:14:11.397Z,4.53
2018-01-22T21:17:16.741Z,4.30
2018-01-22T21:20:21.949Z,4.43
2018-01-22T21:23:28.112Z,4.40
2018-01-22T21:26:33.829Z,4.17
2018-01-22T21:29:38.937Z,4.17
2018-01-22T21:32:44.526Z,4.60
2018-01-22T21:35:50.421Z,4.90
2018-01-22T21:38:55.890Z,4.93
2018-01-22T21:42:00.953Z,4.40
2018-01-22T21:45:06.829Z,4.73
2018-01-22T21:48:12.507Z,4.90
2018-01-22T21:51:18.337Z,4.90
2018-01-22T21:54:24.778Z,4.40
2018-01-22T21:57:30.289Z,4.03
2018-01-22T22:00:36.378Z,4.03
2018-01-22T22:03:42.097Z,4.17
2018-01-22T22:06:48.685Z,4.50
2018-01-22T22:09:54.330Z,8.30
2018-01-22T22:13:00.178Z,9.30
2018-01-22T22:16:06.538Z,8.20
2018-01-22T22:19:12.366Z,7.47
2018-01-22T22:22:17.177Z,7.10
2018-01-22T22:25:22.221Z,6.03
2018-01-22T22:28:28.061Z,6.70
2018-01-22T22:31:33.329Z,5.87
2018-01-22T22:34:38.217Z,6.63
2018-01-22T22:37:43.725Z,6.70
2018-01-22T22:40:49.370Z,5.93
2018-01-22T22:43:54.334Z,5.83
2018-01-22T22:46:59.289Z,5.83
2018-01-22T22:50:05.109Z,5.73
2018-01-22T22:53:09.965Z,5.20
2018-01-22T22:56:14.910Z,4.97
2018-01-22T22:59:20.602Z,5.27
2018-01-22T23:02:26.108Z,5.23
2018-01-22T23:05:31.246Z,5.20
2018-01-22T23:08:36.226Z,4.90
2018-01-22T23:11:41.833Z,5.67
2018-01-22T23:14:47.989Z,5.50
2018-01-22T23:17:54.510Z,5.17
2018-01-22T23:21:00.997Z,5.70
2018-01-22T23:24:06.042Z,5.57
2018-01-22T23:27:12.129Z,5.30
2018-01-22T23:30:17.779Z,5.10
2018-01-22T23:33:22.986Z,4.53
2018-01-22T23:36:28.384Z,4.67
2018-01-22T23:39:33.658Z,5.00
2018-01-22T23:42:39.957Z,4.50
2018-01-22T23:45:45.866Z,4.20
2018-01-22T23:48:50.921Z,5.17
2018-01-22T23:51:56.315Z,4.40
2018-01-22T23:55:01.250Z,4.73
2018-01-22T23:58:06.534Z,5.50
